Time;durP1;ratioP1;P1;durP2;ratioP2;P2;SDS_P1;SDS_P2;PMS_P1;PMS_P2;Temp;Humidity;BMP_temperature;BMP_pressure;BME280_temperature;BME280_humidity;BME280_pressure;Samples;Min_cycle;Max_cycle;Signal;HPM_P1;HPM_P2
2022/07/07 00:03:05;;;;;;;32.50;30.53;;;;;;;19.10;100.00;102430.45;2015000;70;30836;-70
2022/07/07 00:08:54;;;;;;;35.03;32.93;;;;;;;19.02;100.00;102425.50;2011768;71;30863;-70
2022/07/07 00:14:39;;;;;;;34.70;32.70;;;;;;;19.03;100.00;102431.98;2013392;71;31014;-71
2022/07/07 00:20:23;;;;;;;34.07;32.10;;;;;;;19.17;100.00;102420.80;2004833;71;33389;-70
2022/07/07 00:26:10;;;;;;;37.57;35.37;;;;;;;19.08;100.00;102410.19;2004090;71;30933;-71
2022/07/07 00:31:54;;;;;;;36.50;34.50;;;;;;;19.18;100.00;102417.66;1998675;71;30894;-69
2022/07/07 00:37:39;;;;;;;38.57;36.43;;;;;;;19.21;100.00;102419.85;2011748;71;30847;-70
2022/07/07 00:43:26;;;;;;;39.20;37.00;;;;;;;19.15;100.00;102418.84;1991606;71;30916;-69
2022/07/07 00:49:11;;;;;;;42.00;39.70;;;;;;;19.09;100.00;102424.55;2005994;71;31029;-70
2022/07/07 00:54:57;;;;;;;43.57;41.17;;;;;;;19.07;100.00;102424.59;2009452;71;31024;-71
2022/07/07 01:00:43;;;;;;;45.10;42.63;;;;;;;19.01;100.00;102412.56;2001010;71;30886;-71
2022/07/07 01:06:27;;;;;;;46.40;44.00;;;;;;;19.06;100.00;102413.89;2000223;70;30951;-70
2022/07/07 01:12:13;;;;;;;45.87;43.30;;;;;;;19.10;100.00;102416.37;1994801;71;30979;-70
2022/07/07 01:17:57;;;;;;;45.40;43.00;;;;;;;19.16;100.00;102416.30;2007971;71;30983;-70
2022/07/07 01:23:42;;;;;;;46.33;43.90;;;;;;;19.14;100.00;102412.36;1991557;71;30893;-70
2022/07/07 01:29:27;;;;;;;45.30;42.73;;;;;;;19.04;100.00;102419.55;2018652;71;31424;-71
2022/07/07 01:35:15;;;;;;;47.77;45.27;;;;;;;19.07;100.00;102417.55;2003954;71;30895;-70
2022/07/07 01:40:59;;;;;;;47.10;44.43;;;;;;;19.04;100.00;102426.02;2018593;71;31063;-70
2022/07/07 01:46:43;;;;;;;47.73;45.13;;;;;;;19.07;100.00;102434.45;2009801;71;33399;-70
2022/07/07 01:52:28;;;;;;;48.20;45.40;;;;;;;18.99;100.00;102438.80;2018578;71;30962;-69
2022/07/07 01:58:13;;;;;;;50.57;47.77;;;;;;;18.90;100.00;102424.28;2009386;71;31047;-71
2022/07/07 02:03:59;;;;;;;52.20;49.40;;;;;;;18.89;100.00;102443.16;2010154;71;31297;-69
2022/07/07 02:09:43;;;;;;;51.60;48.90;;;;;;;18.92;100.00;102435.50;2015075;71;31428;-71
2022/07/07 02:15:27;;;;;;;52.73;49.83;;;;;;;19.08;100.00;102448.22;2009425;71;30945;-70
2022/07/07 02:21:14;;;;;;;51.50;48.63;;;;;;;19.15;100.00;102423.06;2009278;71;30957;-70
2022/07/07 02:27:00;;;;;;;51.57;48.77;;;;;;;19.18;100.00;102447.23;2012915;71;31449;-69
2022/07/07 02:32:44;;;;;;;53.13;50.23;;;;;;;19.17;100.00;102436.29;2016493;71;30962;-70
2022/07/07 02:38:28;;;;;;;54.00;51.10;;;;;;;19.17;100.00;102446.96;2000884;71;33369;-72
2022/07/07 02:44:12;;;;;;;52.97;50.07;;;;;;;19.14;100.00;102428.43;1991705;71;33314;-69
2022/07/07 02:49:56;;;;;;;52.23;49.23;;;;;;;19.14;100.00;102448.14;2009572;71;30938;-70
2022/07/07 02:55:42;;;;;;;54.30;50.97;;;;;;;19.12;100.00;102458.90;2000292;71;30874;-70
2022/07/07 03:01:27;;;;;;;55.07;52.00;;;;;;;19.13;100.00;102445.05;1985537;71;30866;-70
2022/07/07 03:07:11;;;;;;;54.63;51.53;;;;;;;19.06;100.00;102467.41;2007880;70;31441;-71
2022/07/07 03:12:56;;;;;;;54.97;51.87;;;;;;;19.07;100.00;102451.36;2013625;71;30797;-70
2022/07/07 03:18:40;;;;;;;54.47;51.43;;;;;;;19.06;100.00;102464.59;2008045;71;31482;-70
2022/07/07 03:24:24;;;;;;;54.27;51.17;;;;;;;19.03;100.00;102468.59;1991537;71;30815;-70
2022/07/07 03:30:11;;;;;;;55.63;52.53;;;;;;;19.05;100.00;102472.77;1999170;71;31372;-70
2022/07/07 03:35:55;;;;;;;56.63;53.53;;;;;;;19.03;100.00;102470.01;2006514;71;33299;-71
2022/07/07 03:41:39;;;;;;;56.03;52.80;;;;;;;18.99;100.00;102475.98;2011865;71;31046;-71
2022/07/07 03:47:23;;;;;;;54.53;51.43;;;;;;;19.03;100.00;102477.05;1991723;71;30852;-69
2022/07/07 03:53:07;;;;;;;54.47;51.27;;;;;;;18.97;100.00;102480.49;2006309;71;30855;-70
2022/07/07 03:58:51;;;;;;;54.60;51.57;;;;;;;19.01;100.00;102478.75;2013366;71;30958;-69
2022/07/07 04:04:35;;;;;;;53.40;50.40;;;;;;;18.95;100.00;102481.95;2015097;71;31006;-69
2022/07/07 04:10:20;;;;;;;53.90;50.90;;;;;;;18.99;100.00;102489.50;2009544;71;30971;-71
2022/07/07 04:16:06;;;;;;;51.57;48.67;;;;;;;18.97;100.00;102492.33;1997260;71;30871;-70
2022/07/07 04:21:50;;;;;;;52.60;49.50;;;;;;;18.94;100.00;102498.00;2013641;71;30854;-70
2022/07/07 04:27:34;;;;;;;53.67;50.67;;;;;;;18.95;100.00;102502.51;2015297;71;33012;-70
2022/07/07 04:33:19;;;;;;;53.17;50.17;;;;;;;18.97;100.00;102506.41;2010245;71;33274;-70
2022/07/07 04:39:03;;;;;;;53.53;50.50;;;;;;;18.93;100.00;102517.45;2009995;71;30815;-70
2022/07/07 04:44:48;;;;;;;56.00;52.70;;;;;;;18.89;100.00;102518.34;2000145;71;30916;-70
2022/07/07 04:50:34;;;;;;;54.63;51.20;;;;;;;18.81;100.00;102527.46;1995534;71;33373;-70
2022/07/07 04:56:18;;;;;;;51.87;48.87;;;;;;;18.73;100.00;102529.53;2014012;71;30813;-70
2022/07/07 05:02:06;;;;;;;53.33;50.33;;;;;;;18.65;100.00;102536.67;2008046;71;30959;-69
2022/07/07 05:07:50;;;;;;;52.23;49.30;;;;;;;18.62;100.00;102556.95;2012069;71;30878;-70
2022/07/07 05:13:38;;;;;;;52.43;49.23;;;;;;;18.54;100.00;102554.78;2000919;71;31438;-69
2022/07/07 05:19:24;;;;;;;54.67;51.37;;;;;;;18.44;100.00;102571.77;2009489;71;30904;-70
2022/07/07 05:25:09;;;;;;;52.80;49.67;;;;;;;18.32;100.00;102569.88;1998649;71;31017;-71
2022/07/07 05:30:53;;;;;;;51.80;48.90;;;;;;;18.22;100.00;102577.88;2016738;71;30946;-71
2022/07/07 05:36:37;;;;;;;51.30;48.43;;;;;;;18.26;100.00;102582.34;2002677;71;31415;-70
2022/07/07 05:42:22;;;;;;;50.13;47.23;;;;;;;18.32;100.00;102595.20;1954655;73;31109;-70
2022/07/07 05:48:07;;;;;;;47.67;44.73;;;;;;;18.34;100.00;102605.05;2016787;71;30936;-70
2022/07/07 05:53:51;;;;;;;47.10;44.20;;;;;;;18.53;100.00;102617.83;1997008;71;30882;-71
2022/07/07 05:59:36;;;;;;;49.90;46.90;;;;;;;18.55;100.00;102622.61;2003842;71;30993;-70
2022/07/07 06:05:22;;;;;;;47.63;44.83;;;;;;;18.25;100.00;102643.95;1991703;71;32930;-70
2022/07/07 06:11:07;;;;;;;47.20;44.50;;;;;;;18.19;100.00;102636.11;2011453;71;31013;-71
2022/07/07 06:16:51;;;;;;;49.37;46.47;;;;;;;18.12;100.00;102649.67;2015135;71;30961;-70
2022/07/07 06:22:36;;;;;;;47.13;44.40;;;;;;;18.17;100.00;102664.55;2008339;71;31425;-72
2022/07/07 06:28:21;;;;;;;46.60;44.00;;;;;;;18.20;100.00;102679.43;2005809;71;33447;-70
2022/07/07 06:32:36;;;;;;;47.37;44.60;;;;;;;18.16;100.00;102692.40;2061308;69;30053;-82
2022/07/07 06:35:10;;;;;;;47.00;44.20;;;;;;;18.22;100.00;102696.03;1931902;73;24175;-81
2022/07/07 06:37:40;;;;;;;45.73;43.03;;;;;;;18.25;100.00;102696.84;2016384;71;24612;-82
2022/07/07 06:40:13;;;;;;;48.10;45.30;;;;;;;18.17;100.00;102697.46;2014011;71;24299;-82
2022/07/07 06:42:43;;;;;;;46.20;43.53;;;;;;;18.20;100.00;102700.52;1995495;71;26686;-82
2022/07/07 06:45:14;;;;;;;46.73;43.93;;;;;;;18.26;100.00;102699.94;2016542;71;24169;-82
2022/07/07 06:47:44;;;;;;;46.03;43.43;;;;;;;18.34;100.00;102700.72;1994206;70;24240;-82
2022/07/07 06:50:15;;;;;;;44.43;41.83;;;;;;;18.32;100.00;102704.37;1992073;71;24153;-81
2022/07/07 06:52:45;;;;;;;45.90;43.10;;;;;;;18.29;100.00;102703.56;2006107;70;24169;-82
2022/07/07 06:55:15;;;;;;;46.93;44.33;;;;;;;18.45;100.00;102700.05;2003670;70;24133;-82
2022/07/07 06:57:45;;;;;;;45.53;42.93;;;;;;;18.39;100.00;102698.44;2009273;70;24389;-83
2022/07/07 07:00:17;;;;;;;45.40;42.83;;;;;;;18.45;100.00;102701.46;2012326;71;24211;-81
2022/07/07 07:02:48;;;;;;;44.60;42.00;;;;;;;18.44;100.00;102704.03;1987782;71;24210;-79
2022/07/07 07:05:19;;;;;;;45.70;42.97;;;;;;;18.45;100.00;102709.34;2001776;71;24642;-81
2022/07/07 07:07:49;;;;;;;45.80;43.20;;;;;;;18.31;100.00;102715.38;2015848;71;24214;-83
2022/07/07 07:10:20;;;;;;;46.00;43.30;;;;;;;18.35;100.00;102709.44;2015478;71;24252;-84
2022/07/07 07:12:50;;;;;;;47.07;44.40;;;;;;;18.49;100.00;102716.62;2004538;71;26366;-84
2022/07/07 07:15:20;;;;;;;44.17;41.47;;;;;;;18.44;100.00;102716.69;1987608;71;24122;-80
2022/07/07 07:17:51;;;;;;;45.33;42.53;;;;;;;18.40;100.00;102721.23;2015193;70;24645;-79
2022/07/07 07:20:21;;;;;;;45.83;43.17;;;;;;;18.45;100.00;102729.05;1994496;71;24268;-83
2022/07/07 07:22:52;;;;;;;45.53;42.83;;;;;;;18.44;100.00;102728.77;1997666;71;24213;-79
2022/07/07 07:25:22;;;;;;;47.10;44.40;;;;;;;18.50;100.00;102736.05;1972703;70;26798;-80
2022/07/07 07:27:52;;;;;;;44.77;42.13;;;;;;;18.52;100.00;102739.98;1969904;72;26703;-84
2022/07/07 07:30:22;;;;;;;45.63;42.93;;;;;;;18.58;100.00;102738.83;1968952;72;24171;-82
2022/07/07 07:32:53;;;;;;;45.17;42.47;;;;;;;18.52;100.00;102740.86;1911547;75;24146;-86
2022/07/07 07:35:23;;;;;;;46.47;43.70;;;;;;;18.55;100.00;102747.86;1904549;75;24184;-81
2022/07/07 07:37:53;;;;;;;43.87;41.17;;;;;;;18.71;100.00;102749.98;1896617;75;24130;-83
2022/07/07 07:40:24;;;;;;;45.67;42.97;;;;;;;18.68;100.00;102748.61;1931544;74;26199;-84
2022/07/07 07:42:55;;;;;;;43.97;41.33;;;;;;;18.62;100.00;102753.99;1890609;76;24197;-84
2022/07/07 07:45:25;;;;;;;44.00;41.17;;;;;;;18.70;100.00;102754.77;1937214;74;24117;-84
2022/07/07 07:47:57;;;;;;;42.97;40.47;;;;;;;18.70;100.00;102751.95;1890427;76;24577;-83
2022/07/07 07:50:27;;;;;;;43.20;40.63;;;;;;;18.78;100.00;102757.55;1937083;74;26604;-83
2022/07/07 07:52:57;;;;;;;44.10;41.60;;;;;;;18.71;100.00;102759.27;1936930;74;24121;-84
2022/07/07 07:55:28;;;;;;;43.77;41.20;;;;;;;18.76;100.00;102761.20;1890294;76;24131;-84
2022/07/07 07:57:59;;;;;;;42.30;39.70;;;;;;;18.70;100.00;102762.41;1936934;74;24109;-83
2022/07/07 08:00:29;;;;;;;43.57;40.80;;;;;;;18.69;100.00;102763.53;1890625;76;24118;-83
2022/07/07 08:02:59;;;;;;;43.80;41.10;;;;;;;18.70;100.00;102774.48;1936658;74;26323;-84
2022/07/07 08:05:31;;;;;;;46.70;43.90;;;;;;;18.68;100.00;102768.87;1937010;74;26685;-83
2022/07/07 08:08:01;;;;;;;43.97;41.37;;;;;;;18.69;100.00;102774.79;1937023;74;24190;-83
2022/07/07 08:10:32;;;;;;;44.23;41.73;;;;;;;18.82;100.00;102774.97;1890295;76;24566;-82
2022/07/07 08:13:02;;;;;;;43.73;41.23;;;;;;;19.00;100.00;102776.20;1936769;74;24424;-83
2022/07/07 08:15:32;;;;;;;43.43;40.93;;;;;;;18.96;100.00;102783.56;1936991;74;24630;-82
2022/07/07 08:18:03;;;;;;;43.27;40.67;;;;;;;19.01;100.00;102777.89;1890375;76;24646;-81
2022/07/07 08:20:34;;;;;;;44.00;41.60;;;;;;;19.05;100.00;102786.86;1936321;74;26226;-82
2022/07/07 08:23:04;;;;;;;42.80;40.30;;;;;;;19.03;100.00;102786.33;1890285;76;24293;-82
2022/07/07 08:25:35;;;;;;;41.87;39.43;;;;;;;19.07;100.00;102781.78;1937067;74;24237;-83
2022/07/07 08:28:05;;;;;;;42.03;39.63;;;;;;;19.10;100.00;102784.00;1937298;74;26720;-82
2022/07/07 08:30:35;;;;;;;39.10;36.63;;;;;;;19.34;100.00;102779.00;1890573;76;24135;-82
2022/07/07 08:33:07;;;;;;;38.27;36.07;;;;;;;19.41;100.00;102791.59;1936639;74;24161;-82
2022/07/07 08:35:37;;;;;;;38.80;36.50;;;;;;;19.50;100.00;102786.17;1890403;76;24579;-82
2022/07/07 08:38:08;;;;;;;37.90;35.80;;;;;;;19.62;100.00;102790.83;1936969;74;24117;-83
2022/07/07 08:40:38;;;;;;;42.27;39.73;;;;;;;19.57;100.00;102797.92;1937034;74;24638;-82
2022/07/07 08:43:09;;;;;;;36.47;34.37;;;;;;;19.55;100.00;102801.63;1890302;76;24594;-82
2022/07/07 08:45:39;;;;;;;38.00;35.73;;;;;;;19.53;100.00;102797.69;1936575;74;24132;-82
2022/07/07 08:48:09;;;;;;;36.20;34.00;;;;;;;19.58;100.00;102803.00;1890237;76;24135;-83
2022/07/07 08:50:40;;;;;;;37.93;35.73;;;;;;;19.59;100.00;102810.33;1936950;74;24102;-82
2022/07/07 08:53:12;;;;;;;42.27;39.90;;;;;;;19.55;100.00;102806.67;1936924;74;24222;-82
2022/07/07 08:58:58;;;;;;;37.13;34.83;;;;;;;19.40;100.00;102817.25;1997709;71;30898;-75
2022/07/07 09:04:42;;;;;;;37.20;35.00;;;;;;;19.45;100.00;102815.26;2004463;71;30922;-75
2022/07/07 09:10:34;;;;;;;33.83;31.90;;;;;;;19.78;100.00;102818.27;2008470;71;30857;-77
2022/07/07 09:16:19;;;;;;;34.63;32.63;;;;;;;19.93;100.00;102821.77;1995677;71;30823;-74
2022/07/07 09:22:04;;;;;;;31.70;29.90;;;;;;;20.20;100.00;102829.59;1997434;71;30929;-74
2022/07/07 09:27:55;;;;;;;32.73;30.93;;;;;;;20.22;100.00;102827.89;2017056;71;30989;-74
2022/07/07 09:33:46;;;;;;;30.70;28.60;;;;;;;20.28;100.00;102835.97;2006845;71;31359;-75
2022/07/07 09:39:45;;;;;;;34.70;32.60;;;;;;;19.90;100.00;102853.38;2001296;71;33292;-74
2022/07/07 09:45:36;;;;;;;34.17;32.27;;;;;;;19.96;100.00;102856.99;2011953;71;30866;-75
2022/07/07 09:51:26;;;;;;;30.23;28.40;;;;;;;20.33;100.00;102851.46;2006352;71;33437;-73
2022/07/07 09:57:15;;;;;;;29.17;27.57;;;;;;;20.75;100.00;102850.57;1997598;71;30798;-74
2022/07/07 10:03:00;;;;;;;30.30;28.67;;;;;;;20.44;100.00;102865.73;2004390;71;31061;-74
2022/07/07 10:08:47;;;;;;;31.03;29.23;;;;;;;20.33;100.00;102875.45;2013595;71;31429;-74
2022/07/07 10:14:38;;;;;;;30.37;28.60;;;;;;;20.29;100.00;102877.73;2013734;71;30996;-73
2022/07/07 10:20:23;;;;;;;31.47;29.57;;;;;;;20.16;100.00;102882.13;2000967;71;30953;-73
2022/07/07 10:26:10;;;;;;;30.57;28.97;;;;;;;20.39;100.00;102897.41;2007852;71;30817;-74
2022/07/07 10:32:15;;;;;;;28.77;27.27;;;;;;;20.51;100.00;102904.03;1996815;71;31354;-74
2022/07/07 10:38:10;;;;;;;28.10;26.70;;;;;;;20.42;100.00;102910.34;2013908;71;30805;-76
2022/07/07 10:44:05;;;;;;;27.90;26.40;;;;;;;20.59;100.00;102919.73;1995735;71;30858;-75
2022/07/07 10:49:52;;;;;;;23.63;22.43;;;;;;;20.88;100.00;102923.27;1999107;71;30969;-74
2022/07/07 10:55:59;;;;;;;25.47;24.17;;;;;;;20.82;100.00;102931.56;1995671;71;30875;-74
2022/07/07 11:02:14;;;;;;;25.30;24.10;;;;;;;20.49;100.00;102952.92;1995390;71;30921;-76
2022/07/07 11:08:13;;;;;;;26.27;24.97;;;;;;;20.40;100.00;102956.41;2009645;71;30928;-76
2022/07/07 11:11:05;;;;;;;26.53;25.23;;;;;;;20.49;100.00;102964.22;1968352;72;24170;-76
2022/07/07 11:17:00;;;;;;;27.50;25.90;;;;;;;20.55;100.00;102963.83;2006146;71;30947;-75
2022/07/07 11:22:52;;;;;;;25.13;23.90;;;;;;;20.61;100.00;102964.62;2015265;71;31392;-75
2022/07/07 11:28:39;;;;;;;26.90;25.30;;;;;;;20.89;100.00;102972.98;2005010;71;31340;-77
2022/07/07 11:34:27;;;;;;;23.60;22.40;;;;;;;21.25;100.00;102965.44;2006827;71;30921;-77
2022/07/07 11:40:26;;;;;;;22.30;21.30;;;;;;;21.40;100.00;102969.99;1999291;71;30840;-75
2022/07/07 11:46:11;;;;;;;20.67;19.67;;;;;;;21.75;100.00;102961.76;1999303;71;31596;-77
2022/07/07 11:51:57;;;;;;;18.67;17.87;;;;;;;21.90;100.00;102968.30;2010124;71;30831;-76
2022/07/07 11:57:46;;;;;;;17.60;16.80;;;;;;;21.81;100.00;102962.52;2006733;70;30844;-77
2022/07/07 12:03:35;;;;;;;14.53;13.60;;;;;;;22.22;100.00;102978.19;1997284;71;30845;-76
2022/07/07 12:09:22;;;;;;;15.03;14.23;;;;;;;22.45;100.00;102986.23;2006618;71;30840;-75
2022/07/07 12:15:13;;;;;;;13.70;13.10;;;;;;;22.48;100.00;102986.44;2016830;71;30907;-74
2022/07/07 12:21:00;;;;;;;13.90;13.20;;;;;;;22.60;100.00;102986.75;2017607;71;31554;-75
2022/07/07 12:26:50;;;;;;;13.68;13.05;;;;;;;22.61;100.00;102984.19;2015373;71;30962;-76
2022/07/07 12:32:39;;;;;;;13.22;12.50;;;;;;;22.82;100.00;102978.11;2006635;71;31409;-74
2022/07/07 12:38:38;;;;;;;12.00;11.40;;;;;;;22.79;100.00;102979.59;2010085;71;30832;-75
2022/07/07 12:44:27;;;;;;;11.65;10.95;;;;;;;22.59;100.00;102992.75;2017149;71;31406;-74
2022/07/07 12:50:15;;;;;;;11.30;10.70;;;;;;;22.56;100.00;102978.63;2008436;71;31396;-75
2022/07/07 12:56:15;;;;;;;11.68;11.08;;;;;;;22.58;100.00;102978.31;2015187;71;31495;-75
2022/07/07 13:02:03;;;;;;;10.75;10.05;;;;;;;23.01;100.00;102971.73;1991919;71;31357;-75
2022/07/07 13:07:48;;;;;;;12.37;11.78;;;;;;;23.00;100.00;102976.56;2004903;71;31302;-73
2022/07/07 13:13:33;;;;;;;10.53;10.08;;;;;;;22.91;100.00;102982.72;2007997;71;31033;-75
2022/07/07 13:19:22;;;;;;;10.58;10.08;;;;;;;22.78;100.00;102989.24;2011591;71;30879;-75
2022/07/07 13:25:09;;;;;;;9.93;9.43;;;;;;;23.22;100.00;102982.02;2010217;71;30812;-73
2022/07/07 13:30:57;;;;;;;10.53;10.13;;;;;;;23.44;100.00;102980.09;1991469;71;31270;-74
2022/07/07 13:36:41;;;;;;;10.48;9.98;;;;;;;23.53;100.00;102971.66;1997714;71;30867;-74
2022/07/07 13:42:26;;;;;;;10.20;9.70;;;;;;;23.50;100.00;102978.79;2015458;71;31368;-75
2022/07/07 13:48:10;;;;;;;10.32;9.93;;;;;;;23.41;100.00;102967.08;1995706;71;31423;-74
2022/07/07 13:53:55;;;;;;;10.75;10.08;;;;;;;23.49;100.00;102974.27;2012173;71;31290;-75
2022/07/07 13:59:39;;;;;;;10.70;10.15;;;;;;;23.38;100.00;102986.16;2017342;71;31373;-76
2022/07/07 14:05:25;;;;;;;11.18;10.58;;;;;;;23.51;100.00;102983.31;2012222;71;31377;-75
2022/07/07 14:11:11;;;;;;;10.50;10.10;;;;;;;23.62;100.00;102981.66;2015046;71;30868;-74
2022/07/07 14:16:57;;;;;;;10.18;9.78;;;;;;;23.70;100.00;102988.81;1995042;71;31348;-76
2022/07/07 14:22:42;;;;;;;10.30;9.80;;;;;;;23.63;100.00;102985.56;2006217;71;31037;-74
2022/07/07 14:28:27;;;;;;;10.88;10.28;;;;;;;23.64;100.00;102981.58;2006694;71;30816;-75
2022/07/07 14:34:11;;;;;;;10.05;9.55;;;;;;;23.73;100.00;102978.80;2013589;71;31503;-75
2022/07/07 14:39:55;;;;;;;10.20;9.70;;;;;;;23.78;100.00;102977.25;1998947;71;31351;-75
2022/07/07 14:45:40;;;;;;;10.48;9.98;;;;;;;23.64;100.00;102974.48;2001290;71;31403;-77
2022/07/07 14:51:24;;;;;;;10.78;10.15;;;;;;;23.85;100.00;102984.14;2015490;71;31369;-78
2022/07/07 14:57:09;;;;;;;101.65;22.50;;;;;;;23.79;100.00;102982.59;2004870;71;30834;-75
2022/07/07 15:02:53;;;;;;;51.33;17.98;;;;;;;23.42;100.00;102982.94;2008282;71;30951;-81
2022/07/07 15:08:38;;;;;;;103.72;27.60;;;;;;;23.59;100.00;102981.70;2006859;71;30926;-77
2022/07/07 15:14:23;;;;;;;63.38;18.90;;;;;;;23.44;100.00;102977.83;2009917;71;30883;-77
2022/07/07 15:20:12;;;;;;;25.45;19.15;;;;;;;23.38;100.00;102972.82;2003206;71;30820;-77
2022/07/07 15:25:56;;;;;;;10.70;10.30;;;;;;;23.56;100.00;102977.52;2015204;71;30916;-78
2022/07/07 15:31:44;;;;;;;12.93;11.43;;;;;;;23.71;100.00;102974.02;2015076;71;31041;-78
2022/07/07 15:37:28;;;;;;;35.88;15.08;;;;;;;23.72;100.00;102979.95;2006044;71;31395;-76
2022/07/07 15:43:14;;;;;;;9.95;9.55;;;;;;;23.65;100.00;102979.00;2006737;71;31391;-78
2022/07/07 15:48:59;;;;;;;10.80;10.13;;;;;;;23.73;100.00;102989.58;2007762;71;30932;-76
2022/07/07 15:54:44;;;;;;;14.28;11.97;;;;;;;23.79;100.00;102975.48;1991901;71;30868;-76
2022/07/07 16:00:29;;;;;;;11.75;10.65;;;;;;;23.75;100.00;102975.04;2004739;71;31482;-80
2022/07/07 16:06:15;;;;;;;9.40;9.00;;;;;;;23.87;100.00;102980.41;2012108;71;31009;-78
2022/07/07 16:12:02;;;;;;;9.35;8.95;;;;;;;23.82;100.00;102977.70;1998787;71;31362;-79
2022/07/07 16:17:47;;;;;;;10.45;9.90;;;;;;;23.83;100.00;102976.52;2009811;71;32819;-79
2022/07/07 16:23:31;;;;;;;11.50;10.53;;;;;;;23.84;100.00;102984.45;2013127;71;30875;-79
2022/07/07 16:29:16;;;;;;;12.03;10.55;;;;;;;23.80;100.00;102986.27;2016854;71;31060;-85
2022/07/07 16:35:03;;;;;;;12.33;11.28;;;;;;;23.75;100.00;102970.78;2015422;71;30876;-88
2022/07/07 16:40:48;;;;;;;10.70;10.10;;;;;;;23.69;100.00;102975.77;2002684;71;30971;-78
2022/07/07 16:46:32;;;;;;;10.15;9.55;;;;;;;23.85;100.00;102976.20;1999512;71;30819;-77
2022/07/07 16:52:18;;;;;;;11.00;10.30;;;;;;;23.90;100.00;102966.14;2016972;71;31042;-76
2022/07/07 16:58:04;;;;;;;11.12;10.30;;;;;;;23.84;100.00;102961.17;1992016;71;31323;-76
2022/07/07 17:00:40;;;;;;;10.85;10.25;;;;;;;23.83;100.00;102958.06;1966329;72;24151;-76
2022/07/07 17:06:26;;;;;;;10.45;9.95;;;;;;;23.85;100.00;102950.66;2011276;71;30955;-70
2022/07/07 17:12:11;;;;;;;10.82;10.08;;;;;;;23.85;100.00;102947.23;2004044;71;30929;-70
2022/07/07 17:17:56;;;;;;;10.03;9.53;;;;;;;23.75;100.00;102940.41;2013149;71;31012;-71
2022/07/07 17:23:40;;;;;;;10.50;9.90;;;;;;;23.77;100.00;102954.28;2009547;71;31375;-71
2022/07/07 17:29:24;;;;;;;10.38;9.88;;;;;;;23.74;100.00;102959.20;2000462;71;31537;-71
2022/07/07 17:35:10;;;;;;;8.90;8.45;;;;;;;23.81;100.00;102946.80;1997115;71;31491;-70
2022/07/07 17:40:55;;;;;;;11.40;10.43;;;;;;;23.73;100.00;102954.67;2015104;71;31017;-71
2022/07/07 17:46:39;;;;;;;13.40;11.03;;;;;;;23.68;100.00;102954.22;2011750;71;31337;-69
2022/07/07 17:52:26;;;;;;;15.60;11.22;;;;;;;23.91;100.00;102953.05;2005864;71;31010;-68
2022/07/07 17:58:10;;;;;;;12.80;11.68;;;;;;;23.75;100.00;102953.75;2005535;71;30957;-71
2022/07/07 18:03:55;;;;;;;12.70;11.22;;;;;;;23.57;100.00;102949.98;1991587;71;30882;-71
2022/07/07 18:09:40;;;;;;;11.55;10.63;;;;;;;23.56;100.00;102954.81;1994920;71;30951;-71
2022/07/07 18:15:24;;;;;;;9.95;9.55;;;;;;;23.69;100.00;102956.48;2002472;71;30910;-71
2022/07/07 18:21:09;;;;;;;11.00;10.60;;;;;;;23.59;100.00;102966.09;2003918;71;31476;-71
2022/07/07 18:26:53;;;;;;;10.28;9.88;;;;;;;23.61;100.00;102962.36;2014799;71;31043;-71
2022/07/07 18:32:39;;;;;;;11.00;10.43;;;;;;;23.31;100.00;102968.19;2011699;71;30922;-71
2022/07/07 18:38:27;;;;;;;10.18;9.68;;;;;;;23.32;100.00;102977.53;2006098;71;31185;-71
2022/07/07 18:44:12;;;;;;;9.90;9.50;;;;;;;23.37;100.00;102981.06;2015490;71;31386;-73
2022/07/07 18:49:57;;;;;;;10.10;9.60;;;;;;;23.21;100.00;102985.44;2015558;71;31005;-74
2022/07/07 18:55:42;;;;;;;10.50;10.00;;;;;;;23.04;100.00;102990.94;1995316;70;31487;-73
2022/07/07 19:01:26;;;;;;;10.15;9.75;;;;;;;22.96;100.00;103000.20;2007098;71;31312;-73
2022/07/07 19:07:11;;;;;;;9.98;9.53;;;;;;;23.32;100.00;103012.99;2004948;71;30804;-73
2022/07/07 19:12:56;;;;;;;10.25;9.73;;;;;;;23.36;100.00;103011.19;2006768;71;30906;-73
2022/07/07 19:18:41;;;;;;;10.00;9.60;;;;;;;22.85;100.00;103015.16;1995287;71;31358;-75
2022/07/07 19:24:25;;;;;;;10.15;9.75;;;;;;;22.75;100.00;103018.80;2015493;71;30878;-73
2022/07/07 19:30:12;;;;;;;9.83;9.28;;;;;;;22.56;100.00;103027.36;2011238;71;30941;-72
2022/07/07 19:35:57;;;;;;;9.98;9.58;;;;;;;22.55;100.00;103032.75;1998815;71;31447;-72
2022/07/07 19:41:42;;;;;;;10.37;9.90;;;;;;;22.43;100.00;103034.69;2006344;71;30868;-73
2022/07/07 19:47:26;;;;;;;9.85;9.45;;;;;;;22.27;100.00;103036.14;2007859;71;31465;-73
2022/07/07 19:53:10;;;;;;;10.30;9.75;;;;;;;22.30;100.00;103048.25;1991681;71;30804;-73
2022/07/07 19:58:55;;;;;;;10.23;9.77;;;;;;;22.09;100.00;103061.09;1998609;71;31013;-71
2022/07/07 20:04:41;;;;;;;10.82;10.23;;;;;;;21.84;100.00;103060.92;2008042;71;31010;-69
2022/07/07 20:10:25;;;;;;;11.50;10.90;;;;;;;21.76;100.00;103070.96;2009600;71;31008;-70
2022/07/07 20:16:09;;;;;;;11.30;10.80;;;;;;;21.49;100.00;103073.63;1991551;71;30892;-70
2022/07/07 20:21:54;;;;;;;12.17;11.47;;;;;;;21.23;100.00;103067.50;2010117;71;30913;-71
2022/07/07 20:27:40;;;;;;;13.30;12.60;;;;;;;21.15;100.00;103072.98;1996916;71;30968;-72
2022/07/07 20:33:26;;;;;;;13.50;12.90;;;;;;;21.03;100.00;103089.52;1969327;72;30974;-71
2022/07/07 20:39:11;;;;;;;14.43;13.77;;;;;;;20.77;100.00;103106.78;2009821;71;30942;-70
2022/07/07 20:44:55;;;;;;;15.87;15.00;;;;;;;20.49;100.00;103101.16;2009413;70;30898;-71
2022/07/07 20:50:40;;;;;;;14.77;14.00;;;;;;;20.46;100.00;103101.17;2013031;71;30913;-72
2022/07/07 20:56:24;;;;;;;15.97;15.17;;;;;;;20.28;100.00;103111.78;2000796;71;31339;-72
2022/07/07 21:02:12;;;;;;;17.43;16.63;;;;;;;20.19;100.00;103102.27;2016708;71;33412;-71
2022/07/07 21:07:58;;;;;;;20.37;19.33;;;;;;;20.16;100.00;103112.14;2007934;71;30974;-71
2022/07/07 21:13:45;;;;;;;24.23;22.93;;;;;;;19.94;100.00;103108.37;2016708;71;31028;-71
2022/07/07 21:19:32;;;;;;;23.63;22.37;;;;;;;19.88;100.00;103112.95;2013143;71;31414;-70
2022/07/07 21:25:17;;;;;;;26.00;24.47;;;;;;;19.66;100.00;103117.61;2008243;71;31304;-69
2022/07/07 21:31:07;;;;;;;28.70;27.20;;;;;;;19.59;100.00;103134.02;1998870;71;31309;-72
2022/07/07 21:36:51;;;;;;;30.60;28.70;;;;;;;19.70;100.00;103122.94;1997089;71;31382;-70
2022/07/07 21:42:36;;;;;;;27.90;26.00;;;;;;;20.00;100.00;103128.94;1991686;71;30933;-72
2022/07/07 21:48:25;;;;;;;22.00;20.80;;;;;;;20.33;100.00;103135.73;2005655;71;30950;-73
2022/07/07 21:54:08;;;;;;;20.40;19.40;;;;;;;20.35;100.00;103146.18;2007719;71;30972;-74
2022/07/07 21:59:52;;;;;;;19.63;18.60;;;;;;;20.39;100.00;103145.29;2004033;71;30970;-74
2022/07/07 22:11:39;;;;;;;20.50;19.50;;;;;;;20.14;100.00;103153.09;2006199;71;30953;-73
2022/07/07 22:17:27;;;;;;;22.43;21.13;;;;;;;20.09;100.00;103152.56;1996683;71;30830;-72
2022/07/07 22:23:11;;;;;;;24.70;23.40;;;;;;;19.98;100.00;103153.20;2000091;71;30962;-73
2022/07/07 22:28:55;;;;;;;26.10;24.70;;;;;;;19.86;100.00;103149.05;2016871;71;30905;-74
2022/07/07 22:34:40;;;;;;;26.20;24.90;;;;;;;19.81;100.00;103153.34;1999468;71;30834;-72
2022/07/07 22:40:25;;;;;;;27.13;25.63;;;;;;;19.82;100.00;103151.63;2016838;71;30941;-73
2022/07/07 22:46:09;;;;;;;28.10;26.40;;;;;;;19.75;100.00;103148.86;2011106;71;30939;-74
2022/07/07 22:51:54;;;;;;;30.57;28.87;;;;;;;19.71;100.00;103146.34;2013730;71;30813;-74